Terminal Aerodrome Forecast
Issued by NWS

Home | Current Version | Previous Version | Text Only | Print | Product List | Glossary On
Versions: 1 2 3 4 5 6 7 8 9 10 11 12 13 14
000
FTAK31 PAJN 281700
TAFAKT
TAF
PAKT 281729Z 2818/2918 15015G25KT 5SM -RA BR OVC022 WS020/15035KT
     FM290000 16020G32KT 4SM -RA BR SCT004 OVC015 WS020/16045KT
     FM291300 15010G20KT 6SM -RA BR SCT004 OVC015
     FM291600 16010KT 4SM -RA BR BKN007 OVC012
      AMD LTD TO CLD VIS AND WIND 2906/2915=

USA.gov is the U.S. government's official web portal to all federal, state and local government web resources and services.